sensor_id;sensor_type;location;lat;lon;timestamp;P1;durP1;ratioP1;P2;durP2;ratioP2
5616;SDS011;2830;50.656;7.568;2022-12-18T00:02:21;27.08;;;12.00;;
5616;SDS011;2830;50.656;7.568;2022-12-18T00:04:48;21.67;;;11.40;;
5616;SDS011;2830;50.656;7.568;2022-12-18T00:07:15;22.38;;;11.55;;
5616;SDS011;2830;50.656;7.568;2022-12-18T00:09:42;20.85;;;11.07;;
5616;SDS011;2830;50.656;7.568;2022-12-18T00:12:09;23.58;;;11.43;;
5616;SDS011;2830;50.656;7.568;2022-12-18T00:14:45;19.60;;;11.60;;
5616;SDS011;2830;50.656;7.568;2022-12-18T00:17:12;21.80;;;11.77;;
5616;SDS011;2830;50.656;7.568;2022-12-18T00:19:39;22.67;;;10.73;;
5616;SDS011;2830;50.656;7.568;2022-12-18T00:22:06;23.25;;;11.60;;
5616;SDS011;2830;50.656;7.568;2022-12-18T00:24:33;26.27;;;13.02;;
5616;SDS011;2830;50.656;7.568;2022-12-18T00:27:00;27.00;;;13.70;;
5616;SDS011;2830;50.656;7.568;2022-12-18T00:29:27;23.40;;;11.90;;
5616;SDS011;2830;50.656;7.568;2022-12-18T00:31:54;24.27;;;11.20;;
5616;SDS011;2830;50.656;7.568;2022-12-18T00:34:21;23.50;;;11.60;;
5616;SDS011;2830;50.656;7.568;2022-12-18T00:36:48;20.38;;;11.90;;
5616;SDS011;2830;50.656;7.568;2022-12-18T00:39:15;22.52;;;11.75;;
5616;SDS011;2830;50.656;7.568;2022-12-18T00:41:42;23.33;;;11.68;;
5616;SDS011;2830;50.656;7.568;2022-12-18T00:44:28;21.02;;;11.18;;
5616;SDS011;2830;50.656;7.568;2022-12-18T00:46:55;20.15;;;9.95;;
5616;SDS011;2830;50.656;7.568;2022-12-18T00:49:23;18.45;;;10.07;;
5616;SDS011;2830;50.656;7.568;2022-12-18T00:51:50;18.95;;;10.20;;
5616;SDS011;2830;50.656;7.568;2022-12-18T00:54:17;21.15;;;10.70;;
5616;SDS011;2830;50.656;7.568;2022-12-18T00:56:44;21.98;;;10.48;;
5616;SDS011;2830;50.656;7.568;2022-12-18T00:59:15;23.52;;;12.15;;
5616;SDS011;2830;50.656;7.568;2022-12-18T01:01:43;24.55;;;10.80;;
5616;SDS011;2830;50.656;7.568;2022-12-18T01:04:11;21.58;;;10.95;;
5616;SDS011;2830;50.656;7.568;2022-12-18T01:06:38;24.83;;;11.98;;
5616;SDS011;2830;50.656;7.568;2022-12-18T01:09:05;23.98;;;10.60;;
5616;SDS011;2830;50.656;7.568;2022-12-18T01:11:32;21.77;;;11.05;;
5616;SDS011;2830;50.656;7.568;2022-12-18T01:13:59;25.52;;;13.63;;
5616;SDS011;2830;50.656;7.568;2022-12-18T01:16:26;25.63;;;11.07;;
5616;SDS011;2830;50.656;7.568;2022-12-18T01:18:53;23.98;;;11.13;;
5616;SDS011;2830;50.656;7.568;2022-12-18T01:21:21;21.27;;;10.50;;
5616;SDS011;2830;50.656;7.568;2022-12-18T01:23:53;22.80;;;10.85;;
5616;SDS011;2830;50.656;7.568;2022-12-18T01:26:20;16.70;;;10.05;;
5616;SDS011;2830;50.656;7.568;2022-12-18T01:28:47;21.30;;;12.63;;
5616;SDS011;2830;50.656;7.568;2022-12-18T01:31:16;22.15;;;11.98;;
5616;SDS011;2830;50.656;7.568;2022-12-18T01:33:43;21.92;;;9.98;;
5616;SDS011;2830;50.656;7.568;2022-12-18T01:36:17;24.63;;;11.85;;
5616;SDS011;2830;50.656;7.568;2022-12-18T01:38:45;22.83;;;11.23;;
5616;SDS011;2830;50.656;7.568;2022-12-18T01:41:13;24.42;;;12.23;;
5616;SDS011;2830;50.656;7.568;2022-12-18T01:43:50;19.30;;;10.07;;
5616;SDS011;2830;50.656;7.568;2022-12-18T01:46:19;18.88;;;9.45;;
5616;SDS011;2830;50.656;7.568;2022-12-18T01:48:51;21.88;;;10.52;;
5616;SDS011;2830;50.656;7.568;2022-12-18T01:51:18;20.13;;;9.63;;
5616;SDS011;2830;50.656;7.568;2022-12-18T01:53:46;24.75;;;11.23;;
5616;SDS011;2830;50.656;7.568;2022-12-18T01:56:15;19.02;;;9.93;;
5616;SDS011;2830;50.656;7.568;2022-12-18T02:01:24;27.33;;;10.52;;
5616;SDS011;2830;50.656;7.568;2022-12-18T02:03:52;18.52;;;10.63;;
5616;SDS011;2830;50.656;7.568;2022-12-18T02:06:20;17.58;;;10.43;;
5616;SDS011;2830;50.656;7.568;2022-12-18T02:11:22;23.02;;;10.77;;
5616;SDS011;2830;50.656;7.568;2022-12-18T02:13:55;20.00;;;9.70;;
5616;SDS011;2830;50.656;7.568;2022-12-18T02:19:06;20.73;;;11.23;;
5616;SDS011;2830;50.656;7.568;2022-12-18T02:26:47;16.58;;;9.77;;
5616;SDS011;2830;50.656;7.568;2022-12-18T02:29:22;23.55;;;10.55;;
5616;SDS011;2830;50.656;7.568;2022-12-18T02:31:54;21.00;;;11.45;;
5616;SDS011;2830;50.656;7.568;2022-12-18T02:34:23;19.02;;;10.25;;
5616;SDS011;2830;50.656;7.568;2022-12-18T02:36:52;20.42;;;10.00;;
5616;SDS011;2830;50.656;7.568;2022-12-18T02:42:43;16.80;;;9.65;;
5616;SDS011;2830;50.656;7.568;2022-12-18T02:45:10;23.52;;;11.50;;
5616;SDS011;2830;50.656;7.568;2022-12-18T02:47:39;18.35;;;9.43;;
5616;SDS011;2830;50.656;7.568;2022-12-18T02:50:22;18.92;;;10.40;;
5616;SDS011;2830;50.656;7.568;2022-12-18T02:56:13;21.45;;;11.70;;
5616;SDS011;2830;50.656;7.568;2022-12-18T03:01:19;21.10;;;11.65;;
5616;SDS011;2830;50.656;7.568;2022-12-18T03:03:56;14.68;;;8.55;;
5616;SDS011;2830;50.656;7.568;2022-12-18T03:06:28;19.55;;;9.25;;
5616;SDS011;2830;50.656;7.568;2022-12-18T03:09:01;20.98;;;8.95;;
5616;SDS011;2830;50.656;7.568;2022-12-18T03:11:30;20.20;;;8.90;;
5616;SDS011;2830;50.656;7.568;2022-12-18T03:14:19;20.15;;;10.30;;
5616;SDS011;2830;50.656;7.568;2022-12-18T03:16:47;19.63;;;9.88;;
5616;SDS011;2830;50.656;7.568;2022-12-18T03:19:16;17.70;;;9.60;;
5616;SDS011;2830;50.656;7.568;2022-12-18T03:21:47;17.38;;;9.00;;
5616;SDS011;2830;50.656;7.568;2022-12-18T03:24:15;18.80;;;8.85;;
5616;SDS011;2830;50.656;7.568;2022-12-18T03:26:44;18.33;;;8.32;;
5616;SDS011;2830;50.656;7.568;2022-12-18T03:29:15;13.98;;;7.95;;
5616;SDS011;2830;50.656;7.568;2022-12-18T03:31:45;16.63;;;8.27;;
5616;SDS011;2830;50.656;7.568;2022-12-18T03:34:20;18.00;;;8.35;;
5616;SDS011;2830;50.656;7.568;2022-12-18T03:36:48;13.45;;;7.13;;
5616;SDS011;2830;50.656;7.568;2022-12-18T03:39:16;18.73;;;9.00;;
5616;SDS011;2830;50.656;7.568;2022-12-18T03:41:43;17.77;;;8.32;;
5616;SDS011;2830;50.656;7.568;2022-12-18T03:44:23;13.60;;;7.15;;
5616;SDS011;2830;50.656;7.568;2022-12-18T03:52:25;17.23;;;7.55;;
5616;SDS011;2830;50.656;7.568;2022-12-18T03:54:55;17.88;;;9.13;;
5616;SDS011;2830;50.656;7.568;2022-12-18T03:57:24;20.33;;;8.63;;
5616;SDS011;2830;50.656;7.568;2022-12-18T04:00:01;21.08;;;9.05;;
5616;SDS011;2830;50.656;7.568;2022-12-18T04:02:28;24.63;;;10.82;;
5616;SDS011;2830;50.656;7.568;2022-12-18T04:04:57;15.10;;;9.07;;
5616;SDS011;2830;50.656;7.568;2022-12-18T04:07:25;18.73;;;10.07;;
5616;SDS011;2830;50.656;7.568;2022-12-18T04:09:53;16.02;;;8.30;;
5616;SDS011;2830;50.656;7.568;2022-12-18T04:12:23;16.45;;;7.85;;
5616;SDS011;2830;50.656;7.568;2022-12-18T04:14:51;13.27;;;6.43;;
5616;SDS011;2830;50.656;7.568;2022-12-18T04:17:18;17.88;;;8.68;;
5616;SDS011;2830;50.656;7.568;2022-12-18T04:19:46;17.15;;;8.57;;
5616;SDS011;2830;50.656;7.568;2022-12-18T04:22:13;17.70;;;8.98;;
5616;SDS011;2830;50.656;7.568;2022-12-18T04:24:40;19.45;;;7.95;;
5616;SDS011;2830;50.656;7.568;2022-12-18T04:27:07;18.50;;;7.93;;
5616;SDS011;2830;50.656;7.568;2022-12-18T04:29:34;20.27;;;8.95;;
5616;SDS011;2830;50.656;7.568;2022-12-18T04:32:01;14.93;;;7.55;;
5616;SDS011;2830;50.656;7.568;2022-12-18T04:34:28;28.63;;;9.35;;
5616;SDS011;2830;50.656;7.568;2022-12-18T04:36:56;15.35;;;5.78;;
5616;SDS011;2830;50.656;7.568;2022-12-18T04:39:23;14.88;;;8.63;;
5616;SDS011;2830;50.656;7.568;2022-12-18T04:41:51;16.60;;;8.18;;
5616;SDS011;2830;50.656;7.568;2022-12-18T04:44:18;14.75;;;7.15;;
5616;SDS011;2830;50.656;7.568;2022-12-18T04:46:45;14.80;;;6.78;;
5616;SDS011;2830;50.656;7.568;2022-12-18T04:49:12;13.85;;;7.13;;
5616;SDS011;2830;50.656;7.568;2022-12-18T04:51:39;18.25;;;7.60;;
5616;SDS011;2830;50.656;7.568;2022-12-18T04:54:08;14.77;;;7.43;;
5616;SDS011;2830;50.656;7.568;2022-12-18T04:56:35;17.05;;;8.30;;
5616;SDS011;2830;50.656;7.568;2022-12-18T04:59:02;18.30;;;8.73;;
5616;SDS011;2830;50.656;7.568;2022-12-18T05:01:29;16.88;;;8.13;;
5616;SDS011;2830;50.656;7.568;2022-12-18T05:04:00;17.10;;;7.55;;
5616;SDS011;2830;50.656;7.568;2022-12-18T05:06:27;16.85;;;8.40;;
5616;SDS011;2830;50.656;7.568;2022-12-18T05:08:54;17.00;;;8.57;;
5616;SDS011;2830;50.656;7.568;2022-12-18T05:11:21;17.42;;;8.38;;
5616;SDS011;2830;50.656;7.568;2022-12-18T05:13:49;16.60;;;7.65;;
5616;SDS011;2830;50.656;7.568;2022-12-18T05:16:16;15.63;;;7.32;;
5616;SDS011;2830;50.656;7.568;2022-12-18T05:18:43;21.20;;;8.43;;
5616;SDS011;2830;50.656;7.568;2022-12-18T05:21:10;14.77;;;7.57;;
5616;SDS011;2830;50.656;7.568;2022-12-18T05:23:37;19.00;;;7.85;;
5616;SDS011;2830;50.656;7.568;2022-12-18T05:26:05;19.90;;;9.10;;
5616;SDS011;2830;50.656;7.568;2022-12-18T05:28:34;19.25;;;9.10;;
5616;SDS011;2830;50.656;7.568;2022-12-18T05:31:02;15.07;;;8.02;;
5616;SDS011;2830;50.656;7.568;2022-12-18T05:33:31;14.38;;;6.40;;
5616;SDS011;2830;50.656;7.568;2022-12-18T05:36:00;15.70;;;8.45;;
5616;SDS011;2830;50.656;7.568;2022-12-18T05:38:28;18.85;;;8.30;;
5616;SDS011;2830;50.656;7.568;2022-12-18T05:40:56;18.40;;;8.35;;
5616;SDS011;2830;50.656;7.568;2022-12-18T05:43:23;14.95;;;7.60;;
5616;SDS011;2830;50.656;7.568;2022-12-18T05:45:50;16.75;;;7.50;;
5616;SDS011;2830;50.656;7.568;2022-12-18T05:48:18;14.98;;;8.63;;
5616;SDS011;2830;50.656;7.568;2022-12-18T05:50:46;16.40;;;8.63;;
5616;SDS011;2830;50.656;7.568;2022-12-18T05:53:15;20.83;;;9.80;;
5616;SDS011;2830;50.656;7.568;2022-12-18T05:55:42;19.35;;;10.55;;
5616;SDS011;2830;50.656;7.568;2022-12-18T05:58:10;16.60;;;8.27;;
5616;SDS011;2830;50.656;7.568;2022-12-18T06:00:38;19.13;;;8.32;;
5616;SDS011;2830;50.656;7.568;2022-12-18T06:03:08;20.70;;;10.00;;
5616;SDS011;2830;50.656;7.568;2022-12-18T06:05:36;22.40;;;11.18;;
5616;SDS011;2830;50.656;7.568;2022-12-18T06:08:04;18.52;;;7.95;;
5616;SDS011;2830;50.656;7.568;2022-12-18T06:10:31;16.02;;;7.63;;
5616;SDS011;2830;50.656;7.568;2022-12-18T06:12:58;17.52;;;9.48;;
5616;SDS011;2830;50.656;7.568;2022-12-18T06:15:25;19.17;;;9.05;;
5616;SDS011;2830;50.656;7.568;2022-12-18T06:17:52;15.57;;;8.43;;
5616;SDS011;2830;50.656;7.568;2022-12-18T06:20:19;18.13;;;8.35;;
5616;SDS011;2830;50.656;7.568;2022-12-18T06:22:46;16.55;;;7.80;;
5616;SDS011;2830;50.656;7.568;2022-12-18T06:25:13;13.05;;;6.65;;
5616;SDS011;2830;50.656;7.568;2022-12-18T06:27:41;14.40;;;6.55;;
5616;SDS011;2830;50.656;7.568;2022-12-18T06:30:09;13.77;;;6.78;;
5616;SDS011;2830;50.656;7.568;2022-12-18T06:32:36;18.42;;;7.82;;
5616;SDS011;2830;50.656;7.568;2022-12-18T06:35:03;16.85;;;8.50;;
5616;SDS011;2830;50.656;7.568;2022-12-18T06:37:30;19.27;;;9.15;;
5616;SDS011;2830;50.656;7.568;2022-12-18T06:39:57;16.05;;;8.00;;
5616;SDS011;2830;50.656;7.568;2022-12-18T06:42:25;16.23;;;8.70;;
5616;SDS011;2830;50.656;7.568;2022-12-18T06:44:52;18.15;;;7.72;;
5616;SDS011;2830;50.656;7.568;2022-12-18T06:47:19;20.05;;;8.30;;
5616;SDS011;2830;50.656;7.568;2022-12-18T06:49:46;15.57;;;7.78;;
5616;SDS011;2830;50.656;7.568;2022-12-18T06:52:13;15.73;;;7.85;;
5616;SDS011;2830;50.656;7.568;2022-12-18T06:54:40;13.55;;;7.30;;
5616;SDS011;2830;50.656;7.568;2022-12-18T06:57:08;17.38;;;7.93;;
5616;SDS011;2830;50.656;7.568;2022-12-18T06:59:35;18.48;;;8.18;;
5616;SDS011;2830;50.656;7.568;2022-12-18T07:02:02;13.52;;;7.82;;
5616;SDS011;2830;50.656;7.568;2022-12-18T07:04:29;16.90;;;7.80;;
5616;SDS011;2830;50.656;7.568;2022-12-18T07:06:57;17.02;;;7.30;;
5616;SDS011;2830;50.656;7.568;2022-12-18T07:09:24;15.32;;;7.35;;
5616;SDS011;2830;50.656;7.568;2022-12-18T07:11:51;14.18;;;7.57;;
5616;SDS011;2830;50.656;7.568;2022-12-18T07:14:19;17.67;;;7.70;;
5616;SDS011;2830;50.656;7.568;2022-12-18T07:16:46;18.02;;;8.48;;
5616;SDS011;2830;50.656;7.568;2022-12-18T07:19:13;17.42;;;8.40;;
5616;SDS011;2830;50.656;7.568;2022-12-18T07:21:40;14.30;;;7.43;;
5616;SDS011;2830;50.656;7.568;2022-12-18T07:24:09;18.58;;;8.77;;
5616;SDS011;2830;50.656;7.568;2022-12-18T07:26:36;15.45;;;7.35;;
5616;SDS011;2830;50.656;7.568;2022-12-18T07:29:04;16.73;;;9.00;;
5616;SDS011;2830;50.656;7.568;2022-12-18T07:31:31;19.00;;;9.18;;
5616;SDS011;2830;50.656;7.568;2022-12-18T07:33:58;17.08;;;9.02;;
5616;SDS011;2830;50.656;7.568;2022-12-18T07:36:25;13.88;;;7.80;;
5616;SDS011;2830;50.656;7.568;2022-12-18T07:38:52;20.48;;;10.15;;
5616;SDS011;2830;50.656;7.568;2022-12-18T07:41:21;15.52;;;9.18;;
5616;SDS011;2830;50.656;7.568;2022-12-18T07:43:48;18.77;;;10.00;;
5616;SDS011;2830;50.656;7.568;2022-12-18T07:46:16;17.25;;;9.00;;
5616;SDS011;2830;50.656;7.568;2022-12-18T07:50:19;17.67;;;9.68;;
5616;SDS011;2830;50.656;7.568;2022-12-18T07:54:41;17.73;;;9.95;;
5616;SDS011;2830;50.656;7.568;2022-12-18T07:57:08;21.20;;;10.50;;
5616;SDS011;2830;50.656;7.568;2022-12-18T07:59:55;17.20;;;9.00;;
5616;SDS011;2830;50.656;7.568;2022-12-18T08:02:22;21.95;;;10.65;;
5616;SDS011;2830;50.656;7.568;2022-12-18T08:04:50;18.70;;;9.52;;
5616;SDS011;2830;50.656;7.568;2022-12-18T08:07:17;22.75;;;11.60;;
5616;SDS011;2830;50.656;7.568;2022-12-18T08:09:44;20.40;;;9.13;;
5616;SDS011;2830;50.656;7.568;2022-12-18T08:12:11;21.92;;;8.38;;
5616;SDS011;2830;50.656;7.568;2022-12-18T08:14:38;18.27;;;8.70;;
5616;SDS011;2830;50.656;7.568;2022-12-18T08:17:05;19.10;;;9.05;;
5616;SDS011;2830;50.656;7.568;2022-12-18T08:19:32;20.08;;;10.48;;
5616;SDS011;2830;50.656;7.568;2022-12-18T08:21:59;23.63;;;10.70;;
5616;SDS011;2830;50.656;7.568;2022-12-18T08:24:26;17.98;;;9.82;;
5616;SDS011;2830;50.656;7.568;2022-12-18T08:26:54;24.08;;;10.05;;
5616;SDS011;2830;50.656;7.568;2022-12-18T08:29:43;19.58;;;9.57;;
5616;SDS011;2830;50.656;7.568;2022-12-18T08:32:10;17.65;;;8.63;;
5616;SDS011;2830;50.656;7.568;2022-12-18T08:34:37;19.30;;;8.88;;
5616;SDS011;2830;50.656;7.568;2022-12-18T08:37:05;20.50;;;10.82;;
5616;SDS011;2830;50.656;7.568;2022-12-18T08:39:32;28.45;;;10.07;;
5616;SDS011;2830;50.656;7.568;2022-12-18T08:42:00;18.20;;;9.55;;
5616;SDS011;2830;50.656;7.568;2022-12-18T08:44:46;23.38;;;10.10;;
5616;SDS011;2830;50.656;7.568;2022-12-18T08:47:13;21.10;;;11.15;;
5616;SDS011;2830;50.656;7.568;2022-12-18T08:49:40;19.00;;;9.52;;
5616;SDS011;2830;50.656;7.568;2022-12-18T08:52:07;20.55;;;10.80;;
5616;SDS011;2830;50.656;7.568;2022-12-18T08:54:34;22.30;;;10.80;;
5616;SDS011;2830;50.656;7.568;2022-12-18T08:57:01;23.38;;;9.80;;
5616;SDS011;2830;50.656;7.568;2022-12-18T08:59:29;22.60;;;10.68;;
5616;SDS011;2830;50.656;7.568;2022-12-18T09:01:56;25.10;;;11.27;;
5616;SDS011;2830;50.656;7.568;2022-12-18T09:04:23;24.10;;;11.30;;
5616;SDS011;2830;50.656;7.568;2022-12-18T09:06:50;24.63;;;12.00;;
5616;SDS011;2830;50.656;7.568;2022-12-18T09:09:17;24.42;;;11.68;;
5616;SDS011;2830;50.656;7.568;2022-12-18T09:11:58;29.70;;;14.18;;
5616;SDS011;2830;50.656;7.568;2022-12-18T09:14:26;23.00;;;10.82;;
5616;SDS011;2830;50.656;7.568;2022-12-18T09:16:56;20.15;;;10.23;;
5616;SDS011;2830;50.656;7.568;2022-12-18T09:19:23;21.88;;;11.18;;
5616;SDS011;2830;50.656;7.568;2022-12-18T09:21:51;23.55;;;12.10;;
5616;SDS011;2830;50.656;7.568;2022-12-18T09:24:19;24.25;;;12.27;;
5616;SDS011;2830;50.656;7.568;2022-12-18T09:26:46;23.85;;;11.45;;
5616;SDS011;2830;50.656;7.568;2022-12-18T09:29:15;36.38;;;19.05;;
5616;SDS011;2830;50.656;7.568;2022-12-18T09:31:44;22.20;;;12.75;;
5616;SDS011;2830;50.656;7.568;2022-12-18T09:34:11;22.23;;;11.15;;
5616;SDS011;2830;50.656;7.568;2022-12-18T09:36:38;20.30;;;11.13;;
5616;SDS011;2830;50.656;7.568;2022-12-18T09:39:05;26.42;;;11.50;;
5616;SDS011;2830;50.656;7.568;2022-12-18T09:41:47;31.50;;;15.63;;
5616;SDS011;2830;50.656;7.568;2022-12-18T09:44:21;27.55;;;14.18;;
5616;SDS011;2830;50.656;7.568;2022-12-18T09:49:47;32.45;;;17.05;;
5616;SDS011;2830;50.656;7.568;2022-12-18T09:52:17;34.33;;;15.93;;
5616;SDS011;2830;50.656;7.568;2022-12-18T09:54:51;27.23;;;15.55;;
5616;SDS011;2830;50.656;7.568;2022-12-18T09:57:20;30.88;;;16.52;;
5616;SDS011;2830;50.656;7.568;2022-12-18T09:59:55;28.10;;;15.68;;
5616;SDS011;2830;50.656;7.568;2022-12-18T10:02:24;24.77;;;13.40;;
5616;SDS011;2830;50.656;7.568;2022-12-18T10:07:34;29.00;;;16.15;;
5616;SDS011;2830;50.656;7.568;2022-12-18T10:12:55;30.55;;;17.38;;
5616;SDS011;2830;50.656;7.568;2022-12-18T10:15:24;31.40;;;17.83;;
5616;SDS011;2830;50.656;7.568;2022-12-18T10:17:56;28.48;;;15.50;;
5616;SDS011;2830;50.656;7.568;2022-12-18T10:20:37;27.90;;;15.02;;
5616;SDS011;2830;50.656;7.568;2022-12-18T10:28:36;30.75;;;15.50;;
5616;SDS011;2830;50.656;7.568;2022-12-18T10:31:14;28.85;;;11.95;;
5616;SDS011;2830;50.656;7.568;2022-12-18T10:33:43;23.85;;;11.10;;
5616;SDS011;2830;50.656;7.568;2022-12-18T10:36:10;23.13;;;10.88;;
5616;SDS011;2830;50.656;7.568;2022-12-18T10:38:37;26.58;;;11.68;;
5616;SDS011;2830;50.656;7.568;2022-12-18T10:41:06;19.23;;;8.18;;
5616;SDS011;2830;50.656;7.568;2022-12-18T10:43:38;24.15;;;9.93;;
5616;SDS011;2830;50.656;7.568;2022-12-18T10:51:08;25.73;;;9.32;;
5616;SDS011;2830;50.656;7.568;2022-12-18T10:53:39;24.58;;;11.95;;
5616;SDS011;2830;50.656;7.568;2022-12-18T10:56:06;20.00;;;9.10;;
5616;SDS011;2830;50.656;7.568;2022-12-18T10:58:34;20.80;;;9.75;;
5616;SDS011;2830;50.656;7.568;2022-12-18T11:01:06;21.75;;;9.13;;
5616;SDS011;2830;50.656;7.568;2022-12-18T11:03:38;21.25;;;9.15;;
5616;SDS011;2830;50.656;7.568;2022-12-18T11:08:33;21.08;;;9.82;;
5616;SDS011;2830;50.656;7.568;2022-12-18T11:11:00;23.88;;;10.60;;
5616;SDS011;2830;50.656;7.568;2022-12-18T11:13:28;20.67;;;9.52;;
5616;SDS011;2830;50.656;7.568;2022-12-18T11:15:57;18.10;;;8.35;;
5616;SDS011;2830;50.656;7.568;2022-12-18T11:18:28;20.50;;;10.13;;
5616;SDS011;2830;50.656;7.568;2022-12-18T11:21:14;22.30;;;9.15;;
5616;SDS011;2830;50.656;7.568;2022-12-18T11:23:50;23.50;;;11.00;;
5616;SDS011;2830;50.656;7.568;2022-12-18T11:26:17;22.73;;;9.90;;
5616;SDS011;2830;50.656;7.568;2022-12-18T11:28:49;23.88;;;9.48;;
5616;SDS011;2830;50.656;7.568;2022-12-18T11:31:25;19.63;;;10.80;;
5616;SDS011;2830;50.656;7.568;2022-12-18T11:34:14;23.60;;;10.45;;
5616;SDS011;2830;50.656;7.568;2022-12-18T11:36:59;24.45;;;9.68;;
5616;SDS011;2830;50.656;7.568;2022-12-18T11:39:37;22.73;;;9.35;;
5616;SDS011;2830;50.656;7.568;2022-12-18T11:42:15;21.35;;;9.57;;
5616;SDS011;2830;50.656;7.568;2022-12-18T11:44:48;19.60;;;8.45;;
5616;SDS011;2830;50.656;7.568;2022-12-18T11:47:20;23.20;;;9.45;;
5616;SDS011;2830;50.656;7.568;2022-12-18T11:49:49;20.80;;;9.38;;
5616;SDS011;2830;50.656;7.568;2022-12-18T11:54:43;24.38;;;9.82;;
5616;SDS011;2830;50.656;7.568;2022-12-18T11:59:50;20.98;;;9.70;;
5616;SDS011;2830;50.656;7.568;2022-12-18T12:02:24;24.27;;;11.05;;
5616;SDS011;2830;50.656;7.568;2022-12-18T12:07:29;21.60;;;10.52;;
5616;SDS011;2830;50.656;7.568;2022-12-18T12:12:31;28.65;;;12.20;;
5616;SDS011;2830;50.656;7.568;2022-12-18T12:23:03;28.23;;;12.25;;
5616;SDS011;2830;50.656;7.568;2022-12-18T12:25:33;24.20;;;11.32;;
5616;SDS011;2830;50.656;7.568;2022-12-18T12:28:09;24.30;;;11.77;;
5616;SDS011;2830;50.656;7.568;2022-12-18T12:33:22;23.48;;;11.88;;
5616;SDS011;2830;50.656;7.568;2022-12-18T12:35:58;25.77;;;11.27;;
5616;SDS011;2830;50.656;7.568;2022-12-18T12:38:43;24.95;;;11.45;;
5616;SDS011;2830;50.656;7.568;2022-12-18T12:41:18;30.13;;;11.07;;
5616;SDS011;2830;50.656;7.568;2022-12-18T12:44:06;24.58;;;12.45;;
5616;SDS011;2830;50.656;7.568;2022-12-18T12:46:37;23.13;;;10.73;;
5616;SDS011;2830;50.656;7.568;2022-12-18T12:49:11;30.35;;;12.27;;
5616;SDS011;2830;50.656;7.568;2022-12-18T12:51:40;26.38;;;12.55;;
5616;SDS011;2830;50.656;7.568;2022-12-18T12:54:12;27.58;;;12.57;;
5616;SDS011;2830;50.656;7.568;2022-12-18T12:59:47;28.95;;;13.15;;
5616;SDS011;2830;50.656;7.568;2022-12-18T13:02:22;27.23;;;13.07;;
5616;SDS011;2830;50.656;7.568;2022-12-18T13:04:56;27.60;;;14.32;;
5616;SDS011;2830;50.656;7.568;2022-12-18T13:20:46;32.60;;;14.07;;
5616;SDS011;2830;50.656;7.568;2022-12-18T13:25:54;26.98;;;13.23;;
5616;SDS011;2830;50.656;7.568;2022-12-18T13:31:08;27.77;;;13.27;;
5616;SDS011;2830;50.656;7.568;2022-12-18T13:41:52;25.90;;;13.05;;
5616;SDS011;2830;50.656;7.568;2022-12-18T13:44:24;27.83;;;13.45;;
5616;SDS011;2830;50.656;7.568;2022-12-18T13:46:52;27.13;;;13.52;;
5616;SDS011;2830;50.656;7.568;2022-12-18T13:49:36;29.35;;;13.75;;
5616;SDS011;2830;50.656;7.568;2022-12-18T13:52:15;27.67;;;12.10;;
5616;SDS011;2830;50.656;7.568;2022-12-18T13:54:43;27.83;;;12.90;;
5616;SDS011;2830;50.656;7.568;2022-12-18T13:57:31;31.98;;;15.35;;
5616;SDS011;2830;50.656;7.568;2022-12-18T14:00:45;25.02;;;12.65;;
5616;SDS011;2830;50.656;7.568;2022-12-18T14:02:48;26.05;;;13.05;;
5616;SDS011;2830;50.656;7.568;2022-12-18T14:05:22;25.80;;;14.00;;
5616;SDS011;2830;50.656;7.568;2022-12-18T14:07:49;28.77;;;13.43;;
5616;SDS011;2830;50.656;7.568;2022-12-18T14:10:18;27.63;;;12.77;;
5616;SDS011;2830;50.656;7.568;2022-12-18T14:13:06;26.95;;;12.10;;
5616;SDS011;2830;50.656;7.568;2022-12-18T14:15:35;26.45;;;13.00;;
5616;SDS011;2830;50.656;7.568;2022-12-18T14:20:46;26.00;;;13.68;;
5616;SDS011;2830;50.656;7.568;2022-12-18T14:25:55;28.52;;;14.80;;
5616;SDS011;2830;50.656;7.568;2022-12-18T14:28:30;31.80;;;15.25;;
5616;SDS011;2830;50.656;7.568;2022-12-18T14:30:57;33.72;;;17.63;;
5616;SDS011;2830;50.656;7.568;2022-12-18T14:33:26;25.92;;;14.27;;
5616;SDS011;2830;50.656;7.568;2022-12-18T14:36:00;28.15;;;14.18;;
5616;SDS011;2830;50.656;7.568;2022-12-18T14:38:35;32.00;;;14.52;;
5616;SDS011;2830;50.656;7.568;2022-12-18T14:41:03;38.13;;;15.02;;
5616;SDS011;2830;50.656;7.568;2022-12-18T14:43:32;34.00;;;15.25;;
5616;SDS011;2830;50.656;7.568;2022-12-18T14:45:59;27.05;;;14.35;;
5616;SDS011;2830;50.656;7.568;2022-12-18T14:48:42;31.67;;;15.95;;
5616;SDS011;2830;50.656;7.568;2022-12-18T14:51:23;31.48;;;15.63;;
5616;SDS011;2830;50.656;7.568;2022-12-18T14:53:54;29.50;;;14.88;;
5616;SDS011;2830;50.656;7.568;2022-12-18T14:56:29;34.72;;;14.93;;
5616;SDS011;2830;50.656;7.568;2022-12-18T14:59:04;32.15;;;14.90;;
5616;SDS011;2830;50.656;7.568;2022-12-18T15:04:24;32.45;;;16.30;;
5616;SDS011;2830;50.656;7.568;2022-12-18T15:07:05;35.25;;;17.58;;
5616;SDS011;2830;50.656;7.568;2022-12-18T15:09:35;29.83;;;13.77;;
5616;SDS011;2830;50.656;7.568;2022-12-18T15:14:48;33.83;;;16.60;;
5616;SDS011;2830;50.656;7.568;2022-12-18T15:17:20;32.30;;;16.25;;
5616;SDS011;2830;50.656;7.568;2022-12-18T15:19:50;36.22;;;16.40;;
5616;SDS011;2830;50.656;7.568;2022-12-18T15:22:31;32.15;;;16.42;;
5616;SDS011;2830;50.656;7.568;2022-12-18T15:27:33;29.88;;;14.60;;
5616;SDS011;2830;50.656;7.568;2022-12-18T15:30:23;33.17;;;15.52;;
5616;SDS011;2830;50.656;7.568;2022-12-18T15:32:49;34.72;;;16.25;;
5616;SDS011;2830;50.656;7.568;2022-12-18T15:37:44;36.92;;;18.10;;
5616;SDS011;2830;50.656;7.568;2022-12-18T15:40:12;32.05;;;16.88;;
5616;SDS011;2830;50.656;7.568;2022-12-18T15:42:39;33.88;;;16.15;;
5616;SDS011;2830;50.656;7.568;2022-12-18T15:45:25;38.17;;;16.73;;
5616;SDS011;2830;50.656;7.568;2022-12-18T15:47:52;30.88;;;16.30;;
5616;SDS011;2830;50.656;7.568;2022-12-18T15:50:20;33.83;;;16.33;;
5616;SDS011;2830;50.656;7.568;2022-12-18T15:52:48;37.40;;;15.60;;
5616;SDS011;2830;50.656;7.568;2022-12-18T15:55:17;34.78;;;16.45;;
5616;SDS011;2830;50.656;7.568;2022-12-18T15:58:05;37.95;;;17.05;;
5616;SDS011;2830;50.656;7.568;2022-12-18T16:00:32;33.75;;;16.00;;
5616;SDS011;2830;50.656;7.568;2022-12-18T16:03:00;34.65;;;16.23;;
5616;SDS011;2830;50.656;7.568;2022-12-18T16:05:28;31.98;;;15.95;;
5616;SDS011;2830;50.656;7.568;2022-12-18T16:07:55;35.47;;;20.50;;
5616;SDS011;2830;50.656;7.568;2022-12-18T16:10:23;28.48;;;15.18;;
5616;SDS011;2830;50.656;7.568;2022-12-18T16:12:50;33.25;;;16.58;;
5616;SDS011;2830;50.656;7.568;2022-12-18T16:15:18;32.17;;;16.00;;
5616;SDS011;2830;50.656;7.568;2022-12-18T16:17:49;38.00;;;18.13;;
5616;SDS011;2830;50.656;7.568;2022-12-18T16:20:19;34.72;;;17.40;;
5616;SDS011;2830;50.656;7.568;2022-12-18T16:22:47;40.28;;;18.42;;
5616;SDS011;2830;50.656;7.568;2022-12-18T16:25:19;33.75;;;16.35;;
5616;SDS011;2830;50.656;7.568;2022-12-18T16:27:46;35.08;;;16.35;;
5616;SDS011;2830;50.656;7.568;2022-12-18T16:30:15;32.22;;;16.05;;
5616;SDS011;2830;50.656;7.568;2022-12-18T16:32:43;43.75;;;20.45;;
5616;SDS011;2830;50.656;7.568;2022-12-18T16:35:11;40.72;;;18.88;;
5616;SDS011;2830;50.656;7.568;2022-12-18T16:37:38;38.00;;;17.33;;
5616;SDS011;2830;50.656;7.568;2022-12-18T16:40:06;36.47;;;18.05;;
5616;SDS011;2830;50.656;7.568;2022-12-18T16:42:38;38.17;;;17.98;;
5616;SDS011;2830;50.656;7.568;2022-12-18T16:45:06;38.78;;;18.10;;
5616;SDS011;2830;50.656;7.568;2022-12-18T16:47:34;35.78;;;18.60;;
5616;SDS011;2830;50.656;7.568;2022-12-18T16:50:01;36.42;;;16.25;;
5616;SDS011;2830;50.656;7.568;2022-12-18T16:52:28;38.10;;;16.35;;
5616;SDS011;2830;50.656;7.568;2022-12-18T16:54:56;38.00;;;17.67;;
5616;SDS011;2830;50.656;7.568;2022-12-18T16:57:23;38.92;;;20.42;;
5616;SDS011;2830;50.656;7.568;2022-12-18T16:59:53;33.70;;;16.75;;
5616;SDS011;2830;50.656;7.568;2022-12-18T17:02:28;36.25;;;17.25;;
5616;SDS011;2830;50.656;7.568;2022-12-18T17:04:56;34.80;;;16.80;;
5616;SDS011;2830;50.656;7.568;2022-12-18T17:07:25;38.35;;;17.27;;
5616;SDS011;2830;50.656;7.568;2022-12-18T17:09:53;40.70;;;17.20;;